Time;durP1;ratioP1;P1;durP2;ratioP2;P2;SDS_P1;SDS_P2;PMS_P1;PMS_P2;Temp;Humidity;BMP_temperature;BMP_pressure;BME280_temperature;BME280_humidity;BME280_pressure;Samples;Min_cycle;Max_cycle;Signal;HPM_P1;HPM_P2
2023/10/03 00:00:52;;;;;;;12.90;6.70;;;;;;;19.16;45.70;102421.14;106853;1275;25541;-59
2023/10/03 00:03:19;;;;;;;13.40;6.30;;;;;;;19.13;45.62;102417.52;107163;1259;25340;-58
2023/10/03 00:05:48;;;;;;;12.10;6.20;;;;;;;19.11;45.83;102416.90;107241;1259;25484;-58
2023/10/03 00:08:16;;;;;;;10.30;6.30;;;;;;;19.09;46.14;102416.59;107138;1260;25484;-58
2023/10/03 00:10:45;;;;;;;10.50;6.00;;;;;;;19.11;46.05;102419.91;107179;1257;25335;-58
2023/10/03 00:13:12;;;;;;;10.30;5.90;;;;;;;19.17;46.05;102419.17;106816;1261;25366;-59
2023/10/03 00:15:43;;;;;;;11.60;6.30;;;;;;;19.19;46.05;102419.27;107136;1257;22523;-58
2023/10/03 00:18:13;;;;;;;12.40;6.70;;;;;;;19.20;46.22;102419.08;107166;1260;22530;-58
2023/10/03 00:20:41;;;;;;;15.00;6.70;;;;;;;19.21;45.98;102418.00;107205;1257;22318;-58
2023/10/03 00:23:09;;;;;;;13.20;6.30;;;;;;;19.20;45.95;102417.50;107126;1254;25343;-58
2023/10/03 00:25:36;;;;;;;12.60;6.30;;;;;;;19.20;45.96;102418.04;106925;1267;25325;-57
2023/10/03 00:28:05;;;;;;;11.60;6.50;;;;;;;19.21;45.78;102413.77;107104;1263;25359;-58
2023/10/03 00:30:35;;;;;;;11.40;6.50;;;;;;;19.21;45.59;102416.06;107116;1257;23222;-58
2023/10/03 00:33:04;;;;;;;12.70;6.40;;;;;;;19.19;45.34;102416.98;107078;1254;25383;-58
2023/10/03 00:35:31;;;;;;;10.20;6.30;;;;;;;19.18;45.37;102420.38;107060;1263;25363;-57
2023/10/03 00:38:00;;;;;;;12.30;6.40;;;;;;;19.17;45.45;102420.41;107065;1257;25465;-58
2023/10/03 00:40:27;;;;;;;16.10;7.20;;;;;;;19.17;45.76;102421.83;107125;1257;25356;-58
2023/10/03 00:43:00;;;;;;;10.80;6.20;;;;;;;19.16;45.75;102419.93;106869;1260;25334;-58
2023/10/03 00:45:29;;;;;;;11.10;6.20;;;;;;;19.13;45.78;102420.70;107053;1263;25338;-58
2023/10/03 00:48:00;;;;;;;13.30;6.40;;;;;;;19.12;45.72;102421.80;106867;1260;24381;-58
2023/10/03 00:50:29;;;;;;;12.30;6.80;;;;;;;19.12;45.70;102421.46;107169;1263;22613;-57
2023/10/03 00:52:57;;;;;;;11.70;6.50;;;;;;;19.12;45.57;102419.69;106812;1267;25437;-57
2023/10/03 00:55:33;;;;;;;14.50;7.20;;;;;;;19.12;45.86;102422.16;107047;1261;25363;-57
2023/10/03 01:00:43;;;;;;;13.30;6.90;;;;;;;19.09;47.04;102422.92;107067;1257;25437;-57
2023/10/03 01:03:47;;;;;;;13.70;7.20;;;;;;;19.07;46.98;102429.51;107063;1256;22527;-57
2023/10/03 01:06:15;;;;;;;10.40;6.50;;;;;;;19.04;46.83;102429.77;106554;1268;24240;-58
2023/10/03 01:08:46;;;;;;;15.20;6.50;;;;;;;19.01;46.87;102428.83;106317;1266;22590;-58
2023/10/03 01:11:15;;;;;;;12.20;7.50;;;;;;;18.97;46.85;102428.41;106453;1261;22520;-57
2023/10/03 01:13:54;;;;;;;10.70;6.50;;;;;;;18.95;47.10;102428.30;106601;1262;24376;-58
2023/10/03 01:16:39;;;;;;;13.20;7.10;;;;;;;18.93;46.72;102429.77;106670;1269;23884;-57
2023/10/03 01:19:20;;;;;;;12.60;6.60;;;;;;;18.91;46.86;102431.23;106592;1272;25338;-58
2023/10/03 01:21:49;;;;;;;8.90;5.70;;;;;;;18.90;47.25;102432.34;106607;1262;25635;-57
2023/10/03 01:24:26;;;;;;;13.50;7.10;;;;;;;18.88;47.39;102429.75;106643;1272;25395;-57
2023/10/03 01:26:55;;;;;;;13.90;6.90;;;;;;;18.86;47.40;102433.16;106456;1265;25359;-58
2023/10/03 01:29:22;;;;;;;13.00;6.50;;;;;;;18.82;47.28;102434.32;106712;1275;25328;-57
2023/10/03 01:31:51;;;;;;;13.40;6.40;;;;;;;18.79;47.49;102435.28;106646;1272;25356;-57
2023/10/03 01:34:20;;;;;;;13.80;6.90;;;;;;;18.77;47.40;102435.69;106675;1274;25332;-57
2023/10/03 01:36:48;;;;;;;13.90;6.70;;;;;;;18.75;47.11;102435.08;106692;1260;25325;-58
2023/10/03 01:39:15;;;;;;;13.80;7.40;;;;;;;18.71;47.19;102436.39;106283;1268;25356;-57
2023/10/03 01:41:42;;;;;;;11.50;6.90;;;;;;;18.69;47.24;102437.16;106549;1266;25340;-58
2023/10/03 01:44:10;;;;;;;15.90;6.70;;;;;;;18.67;47.27;102439.14;106843;1259;22552;-57
2023/10/03 01:46:38;;;;;;;16.00;6.70;;;;;;;18.66;47.30;102441.30;106819;1258;25366;-59
2023/10/03 01:49:06;;;;;;;14.50;6.80;;;;;;;18.64;47.31;102440.81;106797;1260;25404;-58
2023/10/03 01:51:33;;;;;;;14.50;6.90;;;;;;;18.60;47.55;102441.79;106743;1273;25349;-58
2023/10/03 01:54:00;;;;;;;13.30;6.80;;;;;;;18.57;47.33;102436.27;106817;1261;25356;-57
2023/10/03 01:56:29;;;;;;;11.90;6.50;;;;;;;18.54;47.31;102437.25;106824;1260;25420;-58
2023/10/03 01:58:59;;;;;;;13.70;7.40;;;;;;;18.50;47.22;102434.20;106752;1260;25331;-57
2023/10/03 02:01:28;;;;;;;11.60;6.80;;;;;;;18.48;47.27;102433.55;106784;1260;24215;-57
2023/10/03 02:03:55;;;;;;;14.10;8.10;;;;;;;18.45;47.43;102428.88;106724;1257;25328;-57
2023/10/03 02:06:22;;;;;;;17.40;7.60;;;;;;;18.43;47.52;102426.98;106893;1258;25312;-57
2023/10/03 02:08:50;;;;;;;16.20;7.50;;;;;;;18.41;47.55;102427.38;106791;1260;25328;-57
2023/10/03 02:11:19;;;;;;;12.80;6.50;;;;;;;18.38;47.23;102429.73;107009;1267;25414;-58
2023/10/03 02:13:48;;;;;;;12.20;6.20;;;;;;;18.35;47.58;102430.88;107139;1260;25371;-58
2023/10/03 02:16:17;;;;;;;11.50;6.90;;;;;;;18.33;47.78;102429.90;107249;1254;25325;-57
2023/10/03 02:18:44;;;;;;;9.70;6.40;;;;;;;18.30;47.44;102431.04;107190;1256;25328;-58
2023/10/03 02:21:16;;;;;;;14.20;7.40;;;;;;;18.26;47.43;102435.35;106428;1264;1003196;-57
2023/10/03 02:23:43;;;;;;;15.40;6.70;;;;;;;18.22;47.67;102440.23;107083;1254;25371;-57
2023/10/03 02:26:10;;;;;;;13.00;7.20;;;;;;;18.19;47.54;102437.48;106878;1260;25321;-57
2023/10/03 02:28:40;;;;;;;13.40;6.60;;;;;;;18.18;47.75;102440.30;107119;1263;22520;-59
2023/10/03 02:31:07;;;;;;;10.80;6.70;;;;;;;18.19;48.26;102439.59;107148;1257;23179;-57
2023/10/03 02:33:37;;;;;;;10.60;6.80;;;;;;;18.17;48.09;102440.17;106333;1263;1003309;-58
2023/10/03 02:36:05;;;;;;;12.60;7.20;;;;;;;18.14;48.09;102440.24;107158;1257;22619;-58
2023/10/03 02:38:38;;;;;;;18.30;7.70;;;;;;;18.12;48.26;102446.81;107227;1257;22678;-57
2023/10/03 02:41:07;;;;;;;13.90;7.50;;;;;;;18.10;48.37;102449.85;106967;1260;25325;-57
2023/10/03 02:43:38;;;;;;;13.10;6.80;;;;;;;18.07;48.45;102449.40;107021;1264;25325;-57
2023/10/03 02:46:07;;;;;;;16.00;8.60;;;;;;;18.05;48.21;102448.92;107133;1263;22533;-57
2023/10/03 02:48:35;;;;;;;14.00;7.70;;;;;;;18.04;47.90;102450.36;107122;1266;22543;-56
2023/10/03 02:51:03;;;;;;;12.30;7.50;;;;;;;18.00;48.13;102448.69;107217;1257;25468;-57
2023/10/03 02:53:30;;;;;;;14.80;7.60;;;;;;;18.00;48.29;102451.70;107118;1267;25316;-57
2023/10/03 02:55:58;;;;;;;13.50;7.20;;;;;;;17.98;48.34;102448.92;106850;1254;25402;-58
2023/10/03 02:58:25;;;;;;;13.30;7.70;;;;;;;17.95;48.44;102450.23;107129;1259;25312;-57
2023/10/03 03:00:53;;;;;;;16.10;7.80;;;;;;;17.92;48.39;102452.08;107121;1269;25475;-57
2023/10/03 03:03:22;;;;;;;14.80;7.80;;;;;;;17.90;48.56;102452.82;107187;1257;22533;-57
2023/10/03 03:05:50;;;;;;;12.70;7.60;;;;;;;17.88;48.82;102450.74;106824;1267;25312;-56
2023/10/03 03:10:55;;;;;;;17.10;7.80;;;;;;;17.91;49.06;102449.83;107208;1261;22527;-58
2023/10/03 03:13:26;;;;;;;14.90;7.50;;;;;;;17.91;49.08;102446.64;107058;1256;24237;-57
2023/10/03 03:15:59;;;;;;;11.00;7.00;;;;;;;17.91;49.01;102446.30;107075;1266;25376;-57
2023/10/03 03:18:31;;;;;;;15.90;7.40;;;;;;;17.91;49.04;102446.30;106950;1263;25359;-57
2023/10/03 03:20:59;;;;;;;10.30;7.30;;;;;;;17.88;49.04;102451.45;107150;1260;22555;-57
2023/10/03 03:23:42;;;;;;;14.40;8.10;;;;;;;17.88;49.26;102452.50;106357;1256;1003451;-57
2023/10/03 03:26:17;;;;;;;13.60;7.50;;;;;;;17.89;49.45;102451.95;107065;1255;22517;-57
2023/10/03 03:28:46;;;;;;;13.90;7.60;;;;;;;17.89;49.65;102453.89;107088;1260;25325;-57
2023/10/03 03:31:25;;;;;;;13.50;7.10;;;;;;;17.89;49.86;102453.37;107160;1256;25334;-57
2023/10/03 03:33:55;;;;;;;13.70;7.10;;;;;;;17.88;50.05;102458.81;107038;1257;25347;-56
2023/10/03 03:36:30;;;;;;;13.50;7.10;;;;;;;17.88;50.09;102459.35;107148;1251;25331;-57
2023/10/03 03:39:14;;;;;;;12.50;6.90;;;;;;;17.87;49.69;102464.65;107190;1254;25475;-57
2023/10/03 03:41:43;;;;;;;13.40;7.80;;;;;;;17.83;49.44;102457.89;107074;1254;25344;-58
2023/10/03 03:44:13;;;;;;;13.30;7.20;;;;;;;17.82;49.24;102460.20;107080;1260;24258;-58
2023/10/03 03:46:43;;;;;;;13.90;7.40;;;;;;;17.82;49.07;102457.59;106871;1267;25402;-58
2023/10/03 03:49:10;;;;;;;13.40;7.40;;;;;;;17.80;49.08;102461.66;105362;1266;1003353;-58
2023/10/03 03:51:38;;;;;;;19.10;8.10;;;;;;;17.76;49.22;102468.44;107083;1257;25346;-56
2023/10/03 03:54:09;;;;;;;15.60;7.90;;;;;;;17.74;49.55;102471.83;107077;1267;25350;-57
2023/10/03 03:56:38;;;;;;;16.20;8.40;;;;;;;17.74;49.55;102469.34;107133;1257;25692;-57
2023/10/03 03:59:06;;;;;;;16.30;7.90;;;;;;;17.73;49.76;102472.54;107110;1263;25372;-57
2023/10/03 04:01:33;;;;;;;12.70;7.60;;;;;;;17.72;49.98;102477.14;106889;1264;25316;-58
2023/10/03 04:04:03;;;;;;;16.30;7.50;;;;;;;17.71;50.24;102477.49;107089;1267;25459;-57
2023/10/03 04:06:32;;;;;;;14.50;8.30;;;;;;;17.71;50.17;102477.69;106929;1267;25334;-57
2023/10/03 04:08:59;;;;;;;12.80;7.30;;;;;;;17.70;50.16;102476.82;107030;1265;25338;-57
2023/10/03 04:11:35;;;;;;;12.40;7.40;;;;;;;17.69;50.40;102476.15;107172;1251;25405;-57
2023/10/03 04:14:05;;;;;;;13.80;7.70;;;;;;;17.68;50.54;102477.04;107179;1260;25337;-57
2023/10/03 04:16:39;;;;;;;12.50;7.00;;;;;;;17.66;50.74;102479.00;107113;1261;25242;-57
2023/10/03 04:19:07;;;;;;;13.00;7.50;;;;;;;17.66;50.55;102483.95;107083;1256;25398;-56
2023/10/03 04:21:35;;;;;;;18.80;8.20;;;;;;;17.65;50.65;102491.86;107101;1257;25315;-57
2023/10/03 04:24:02;;;;;;;12.30;7.40;;;;;;;17.67;50.83;102494.63;107181;1264;25343;-57
2023/10/03 04:26:32;;;;;;;14.30;7.90;;;;;;;17.67;50.92;102495.49;106891;1264;25284;-57
2023/10/03 04:28:59;;;;;;;15.40;7.60;;;;;;;17.68;51.13;102492.83;107190;1263;25367;-57
2023/10/03 04:31:27;;;;;;;14.00;6.80;;;;;;;17.70;51.05;102491.39;106951;1267;25475;-57
2023/10/03 04:33:55;;;;;;;12.10;7.40;;;;;;;17.71;51.17;102493.13;107107;1255;25359;-57
2023/10/03 04:36:25;;;;;;;13.50;7.50;;;;;;;17.71;51.08;102497.33;106847;1267;22530;-58
2023/10/03 04:38:53;;;;;;;15.90;7.80;;;;;;;17.73;51.28;102505.90;107070;1265;25331;-57
2023/10/03 04:41:20;;;;;;;18.20;8.00;;;;;;;17.75;51.30;102504.95;107114;1257;25420;-57
2023/10/03 04:43:49;;;;;;;13.70;7.90;;;;;;;17.78;51.27;102509.29;106851;1257;25510;-55
2023/10/03 04:46:16;;;;;;;14.90;7.80;;;;;;;17.79;51.11;102506.25;106859;1257;25325;-57
2023/10/03 04:48:43;;;;;;;15.70;8.40;;;;;;;17.79;50.90;102511.35;107171;1256;25318;-57
2023/10/03 04:51:14;;;;;;;15.70;8.00;;;;;;;17.77;50.92;102513.51;107062;1260;25396;-57
2023/10/03 04:53:41;;;;;;;12.80;7.50;;;;;;;17.78;50.90;102511.02;107104;1254;22540;-57
2023/10/03 04:56:08;;;;;;;18.30;7.80;;;;;;;17.78;50.87;102512.44;107105;1264;25318;-57
2023/10/03 04:58:35;;;;;;;14.20;7.70;;;;;;;17.77;50.97;102516.15;106861;1266;25366;-57
2023/10/03 05:01:02;;;;;;;14.10;7.40;;;;;;;17.77;51.00;102520.00;107061;1264;25570;-57
2023/10/03 05:03:30;;;;;;;16.20;8.30;;;;;;;17.79;51.08;102519.96;107199;1254;22759;-57
2023/10/03 05:05:57;;;;;;;17.20;7.80;;;;;;;17.79;51.19;102522.07;107106;1257;23356;-57
2023/10/03 05:08:25;;;;;;;16.40;7.80;;;;;;;17.81;51.01;102525.19;107089;1251;25399;-57
2023/10/03 05:10:54;;;;;;;12.90;7.00;;;;;;;17.83;51.03;102534.98;107137;1254;25340;-58
2023/10/03 05:13:21;;;;;;;15.60;7.70;;;;;;;17.84;50.76;102535.13;106878;1263;25455;-57
2023/10/03 05:15:48;;;;;;;17.10;7.40;;;;;;;17.85;50.66;102540.55;106908;1260;25337;-57
2023/10/03 05:18:15;;;;;;;16.40;7.90;;;;;;;17.86;50.68;102540.54;107106;1254;25414;-57
2023/10/03 05:20:42;;;;;;;16.20;7.80;;;;;;;17.85;50.29;102539.48;107173;1255;24255;-57
2023/10/03 05:23:29;;;;;;;15.50;7.20;;;;;;;17.86;50.07;102539.46;106832;1270;22725;-57
2023/10/03 05:25:57;;;;;;;14.60;7.20;;;;;;;17.88;50.09;102542.75;106698;1263;25414;-57
2023/10/03 05:28:24;;;;;;;14.70;7.50;;;;;;;17.88;49.88;102544.84;106836;1257;25318;-57
2023/10/03 05:30:52;;;;;;;13.00;7.20;;;;;;;17.90;49.85;102546.75;106691;1273;25353;-57
2023/10/03 05:33:20;;;;;;;14.20;6.50;;;;;;;17.92;50.10;102549.34;106835;1267;25328;-57
2023/10/03 05:35:47;;;;;;;12.50;7.00;;;;;;;17.95;50.02;102551.55;106846;1266;25458;-58
2023/10/03 05:38:14;;;;;;;11.90;7.10;;;;;;;17.98;49.81;102550.23;106727;1271;25363;-57
2023/10/03 05:40:43;;;;;;;15.60;7.40;;;;;;;18.01;49.71;102553.51;106859;1257;23873;-57
2023/10/03 05:43:11;;;;;;;15.30;8.00;;;;;;;18.03;49.79;102551.36;107055;1254;25325;-57
2023/10/03 05:45:39;;;;;;;14.00;7.90;;;;;;;18.05;49.81;102550.42;104105;1254;1003759;-57
2023/10/03 05:48:06;;;;;;;12.50;6.90;;;;;;;18.07;49.68;102553.71;106886;1257;25484;-57
2023/10/03 05:50:34;;;;;;;15.60;6.70;;;;;;;18.10;49.74;102553.12;107109;1250;25337;-57
2023/10/03 05:53:02;;;;;;;12.20;6.50;;;;;;;18.14;49.67;102554.95;106336;1255;1003003;-57
2023/10/03 05:55:29;;;;;;;14.00;7.50;;;;;;;18.17;49.41;102556.46;107053;1260;25392;-57
2023/10/03 05:57:56;;;;;;;13.20;7.00;;;;;;;18.18;49.32;102556.41;106899;1257;24358;-57
2023/10/03 06:00:23;;;;;;;15.60;7.30;;;;;;;18.20;49.26;102562.69;106883;1269;25382;-57
2023/10/03 06:02:50;;;;;;;11.90;7.00;;;;;;;18.22;49.45;102568.27;107160;1265;25411;-57
2023/10/03 06:05:20;;;;;;;14.00;7.50;;;;;;;18.26;49.57;102567.66;107204;1254;25784;-58
2023/10/03 06:07:49;;;;;;;12.70;7.10;;;;;;;18.29;49.46;102569.32;107132;1255;25325;-57
2023/10/03 06:10:16;;;;;;;11.40;7.20;;;;;;;18.33;49.42;102569.39;107063;1256;25337;-57
2023/10/03 06:12:44;;;;;;;14.10;7.30;;;;;;;18.36;49.18;102574.96;107090;1264;25344;-57
2023/10/03 06:15:14;;;;;;;13.40;7.40;;;;;;;18.39;49.34;102578.39;107117;1257;25347;-57
2023/10/03 06:17:42;;;;;;;12.10;6.50;;;;;;;18.42;49.32;102574.96;107104;1256;25343;-57
2023/10/03 06:20:14;;;;;;;15.30;8.00;;;;;;;18.45;49.25;102572.63;107168;1250;25396;-57
2023/10/03 06:22:41;;;;;;;16.20;7.60;;;;;;;18.49;49.32;102576.74;106854;1267;25337;-57
2023/10/03 06:25:09;;;;;;;11.90;7.20;;;;;;;18.55;49.28;102578.52;107130;1263;25392;-57
2023/10/03 06:27:37;;;;;;;13.90;7.20;;;;;;;18.59;48.80;102579.98;107236;1254;25316;-57
2023/10/03 06:30:06;;;;;;;15.00;6.80;;;;;;;18.62;48.47;102579.02;107111;1254;25323;-58
2023/10/03 06:32:33;;;;;;;16.60;8.50;;;;;;;18.64;48.53;102579.86;106874;1260;25325;-58
2023/10/03 06:35:01;;;;;;;17.20;8.20;;;;;;;18.67;48.71;102577.48;107185;1257;25325;-57
2023/10/03 06:37:28;;;;;;;13.40;7.10;;;;;;;18.72;48.69;102577.37;107149;1251;25373;-57
2023/10/03 06:39:55;;;;;;;13.20;6.90;;;;;;;18.77;48.83;102577.94;107055;1267;25325;-57
2023/10/03 06:42:23;;;;;;;11.90;6.90;;;;;;;18.83;48.65;102579.55;107136;1251;25392;-58
2023/10/03 06:44:51;;;;;;;18.80;10.80;;;;;;;18.87;48.65;102581.16;107106;1258;25368;-58
2023/10/03 06:47:20;;;;;;;16.90;9.90;;;;;;;18.93;48.64;102588.55;107072;1264;25446;-58
2023/10/03 06:49:49;;;;;;;13.00;7.20;;;;;;;19.00;48.56;102584.34;106826;1267;25806;-58
2023/10/03 06:52:16;;;;;;;15.00;7.10;;;;;;;19.05;48.38;102587.00;107151;1266;25366;-57
2023/10/03 06:54:43;;;;;;;16.00;8.10;;;;;;;19.10;48.14;102588.80;107072;1263;25335;-57
2023/10/03 06:57:14;;;;;;;10.00;6.50;;;;;;;19.13;48.18;102594.52;107003;1257;22535;-58
2023/10/03 06:59:42;;;;;;;11.20;7.30;;;;;;;19.17;48.26;102596.34;106997;1267;25315;-57
2023/10/03 07:02:09;;;;;;;13.20;6.90;;;;;;;19.20;48.25;102591.52;106972;1263;25356;-58
2023/10/03 07:04:36;;;;;;;11.30;7.20;;;;;;;19.22;48.18;102592.31;106918;1273;23373;-57
2023/10/03 07:07:03;;;;;;;10.40;6.10;;;;;;;19.22;47.99;102595.48;106843;1267;25325;-57
2023/10/03 07:09:30;;;;;;;13.30;6.90;;;;;;;19.22;47.95;102595.84;107244;1264;25354;-58
2023/10/03 07:11:58;;;;;;;13.50;7.20;;;;;;;19.22;48.04;102595.33;107075;1260;27141;-57
2023/10/03 07:14:25;;;;;;;15.40;7.20;;;;;;;19.22;48.36;102596.20;106906;1273;25319;-57
2023/10/03 07:16:52;;;;;;;11.00;7.20;;;;;;;19.22;48.65;102597.61;104118;1255;1003599;-57
2023/10/03 07:19:21;;;;;;;12.20;7.70;;;;;;;19.23;48.60;102602.48;107093;1266;25474;-58
2023/10/03 07:21:48;;;;;;;11.80;7.10;;;;;;;19.25;48.44;102602.61;106942;1254;25436;-57
2023/10/03 07:24:15;;;;;;;12.90;6.90;;;;;;;19.28;48.47;102602.52;106921;1266;25402;-57
2023/10/03 07:26:42;;;;;;;12.50;6.90;;;;;;;19.32;48.61;102601.53;107074;1259;25359;-57
2023/10/03 07:29:09;;;;;;;12.80;7.00;;;;;;;19.34;48.29;102600.09;107156;1251;25385;-57
2023/10/03 07:31:36;;;;;;;11.90;7.00;;;;;;;19.35;48.26;102598.83;107387;1253;25369;-57
2023/10/03 07:34:04;;;;;;;10.90;6.60;;;;;;;19.37;47.97;102599.15;106890;1267;25338;-59
2023/10/03 07:36:31;;;;;;;13.20;7.70;;;;;;;19.40;48.18;102602.55;107123;1253;22571;-58
2023/10/03 07:38:58;;;;;;;11.90;7.70;;;;;;;19.45;48.29;102604.16;107463;1263;25405;-59
2023/10/03 07:41:27;;;;;;;11.70;7.30;;;;;;;19.53;48.16;102607.48;107139;1266;25487;-58
2023/10/03 07:43:54;;;;;;;16.00;7.10;;;;;;;19.60;48.01;102606.56;107111;1272;22879;-58
2023/10/03 07:46:22;;;;;;;12.60;6.70;;;;;;;19.66;48.07;102610.23;105788;1250;1002914;-58
2023/10/03 07:48:52;;;;;;;15.50;6.80;;;;;;;19.72;48.01;102611.80;106793;1263;25395;-58
2023/10/03 07:51:29;;;;;;;12.70;7.30;;;;;;;19.80;47.69;102610.88;107285;1266;25411;-59
2023/10/03 07:53:56;;;;;;;14.20;7.50;;;;;;;19.87;47.48;102613.11;107321;1257;25370;-58
2023/10/03 07:56:25;;;;;;;11.10;6.60;;;;;;;19.92;47.51;102614.35;107081;1250;24208;-59
2023/10/03 07:58:56;;;;;;;13.00;7.40;;;;;;;20.00;47.65;102611.48;106795;1253;25246;-58
2023/10/03 08:01:27;;;;;;;11.10;6.40;;;;;;;20.08;47.47;102611.55;106859;1254;25576;-58
2023/10/03 08:03:54;;;;;;;12.80;6.70;;;;;;;20.16;47.19;102608.48;106988;1254;25432;-58
2023/10/03 08:06:23;;;;;;;14.00;7.40;;;;;;;20.23;47.22;102607.57;107083;1251;24227;-59
2023/10/03 08:08:59;;;;;;;14.20;7.30;;;;;;;20.30;46.78;102612.45;106875;1254;22608;-59
2023/10/03 08:11:30;;;;;;;13.80;7.10;;;;;;;20.36;46.71;102611.36;106978;1270;25349;-60
2023/10/03 08:14:11;;;;;;;14.30;7.10;;;;;;;20.43;46.75;102613.09;107001;1267;24234;-59
2023/10/03 08:16:43;;;;;;;11.30;6.90;;;;;;;20.49;46.57;102612.54;105670;1266;1002845;-59
2023/10/03 08:19:27;;;;;;;10.50;6.50;;;;;;;20.54;46.42;102613.77;106835;1273;24344;-58
2023/10/03 08:21:55;;;;;;;15.70;7.20;;;;;;;20.58;46.57;102611.34;107087;1267;23868;-59
2023/10/03 08:24:25;;;;;;;11.40;6.90;;;;;;;20.63;46.32;102612.39;107072;1267;24450;-59
2023/10/03 08:27:00;;;;;;;13.20;6.80;;;;;;;20.67;46.04;102611.01;107012;1274;24230;-60
2023/10/03 08:29:28;;;;;;;11.40;6.70;;;;;;;20.70;45.80;102611.27;107056;1257;25325;-59
2023/10/03 08:31:57;;;;;;;14.80;7.00;;;;;;;20.73;45.74;102610.11;106877;1267;25481;-60
2023/10/03 08:34:27;;;;;;;11.70;6.70;;;;;;;20.75;45.81;102608.64;106382;1253;1003475;-60
2023/10/03 08:37:02;;;;;;;9.00;6.20;;;;;;;20.78;46.01;102607.29;107076;1274;24312;-59
2023/10/03 09:03:58;;;;;;;13.20;6.70;;;;;;;19.41;50.50;102598.61;105375;1289;558633;-56
2023/10/03 09:06:26;;;;;;;11.30;6.50;;;;;;;20.71;46.91;102595.88;106081;1269;25373;-56
2023/10/03 09:09:08;;;;;;;11.30;6.30;;;;;;;20.88;46.33;102598.97;105843;1280;23385;-56
2023/10/03 09:11:38;;;;;;;10.10;6.20;;;;;;;20.99;45.58;102598.23;105562;1280;1003779;-56
2023/10/03 09:14:06;;;;;;;8.00;5.80;;;;;;;21.10;45.20;102598.76;105185;1269;1003073;-56
2023/10/03 09:16:38;;;;;;;9.80;5.90;;;;;;;21.19;44.80;102596.30;105805;1283;422127;-56
2023/10/03 09:19:09;;;;;;;12.20;6.30;;;;;;;21.29;44.44;102598.95;106183;1273;22534;-55
2023/10/03 09:21:36;;;;;;;8.30;5.30;;;;;;;21.36;44.09;102596.57;106165;1267;25394;-56
2023/10/03 09:24:14;;;;;;;11.60;5.50;;;;;;;21.42;44.33;102600.55;106352;1267;25353;-57
2023/10/03 09:26:46;;;;;;;11.10;5.70;;;;;;;21.50;44.35;102599.74;106387;1267;25328;-56
2023/10/03 09:29:30;;;;;;;10.90;6.00;;;;;;;21.57;44.07;102600.88;106499;1280;24218;-56
2023/10/03 09:32:17;;;;;;;10.10;5.70;;;;;;;21.63;44.15;102600.10;106286;1263;24235;-57
2023/10/03 09:34:45;;;;;;;9.80;5.20;;;;;;;21.68;44.05;102596.54;106467;1273;25369;-56
2023/10/03 09:37:12;;;;;;;8.40;5.20;;;;;;;21.74;44.02;102598.10;106323;1274;25397;-57
2023/10/03 09:39:40;;;;;;;9.20;5.80;;;;;;;21.79;43.56;102597.34;106463;1264;25342;-57
2023/10/03 09:42:15;;;;;;;9.40;5.80;;;;;;;21.84;43.60;102595.22;106340;1280;25359;-56
2023/10/03 09:44:48;;;;;;;12.20;6.00;;;;;;;21.92;43.39;102598.64;106709;1263;25337;-56
2023/10/03 09:47:19;;;;;;;9.80;6.00;;;;;;;21.97;42.97;102595.09;106330;1267;25414;-56
2023/10/03 09:49:46;;;;;;;8.30;5.20;;;;;;;22.02;42.60;102589.04;106736;1263;22523;-56
2023/10/03 09:52:22;;;;;;;11.10;5.40;;;;;;;22.07;42.17;102593.43;106549;1264;25331;-56
2023/10/03 09:54:53;;;;;;;8.80;5.20;;;;;;;22.13;41.95;102591.23;106250;1270;25356;-57
2023/10/03 09:57:21;;;;;;;8.00;5.10;;;;;;;22.19;41.56;102588.34;105919;1283;25433;-56
2023/10/03 09:59:49;;;;;;;8.30;5.40;;;;;;;22.25;41.72;102590.73;106536;1257;25341;-56
2023/10/03 10:02:30;;;;;;;10.40;5.90;;;;;;;22.32;41.28;102591.29;106773;1264;22519;-56
2023/10/03 10:05:06;;;;;;;8.90;5.40;;;;;;;22.40;40.62;102586.19;106534;1264;25337;-56
2023/10/03 10:08:06;;;;;;;8.70;5.20;;;;;;;22.45;40.27;102584.20;106756;1256;22635;-56
2023/10/03 10:10:34;;;;;;;9.90;5.60;;;;;;;22.50;39.86;102586.13;106242;1265;23870;-57
2023/10/03 10:13:12;;;;;;;10.90;5.50;;;;;;;22.56;39.92;102583.41;106027;1273;24214;-56
2023/10/03 10:16:07;;;;;;;9.20;5.70;;;;;;;22.66;39.81;102582.13;106114;1266;25516;-57
2023/10/03 10:19:00;;;;;;;10.50;5.10;;;;;;;22.74;39.48;102580.34;106069;1266;25517;-56
2023/10/03 10:21:36;;;;;;;11.90;5.80;;;;;;;22.82;39.25;102579.64;106220;1282;23915;-56
2023/10/03 10:24:15;;;;;;;8.20;5.10;;;;;;;22.88;38.39;102569.98;105786;1286;25352;-56
2023/10/03 10:26:54;;;;;;;10.70;5.50;;;;;;;22.93;38.06;102573.12;106099;1272;25484;-56
2023/10/03 10:29:24;;;;;;;10.20;4.90;;;;;;;22.96;38.17;102567.30;105921;1289;25746;-56
2023/10/03 10:32:00;;;;;;;7.60;5.00;;;;;;;22.99;38.31;102563.81;105738;1276;22556;-56
2023/10/03 10:34:29;;;;;;;7.30;5.20;;;;;;;23.04;38.11;102559.19;106176;1272;23359;-56
2023/10/03 10:37:04;;;;;;;11.80;5.60;;;;;;;23.08;37.27;102555.30;105643;1272;25542;-56
2023/10/03 10:39:54;;;;;;;9.10;6.10;;;;;;;23.10;37.24;102553.09;105951;1280;22420;-57
2023/10/03 10:42:29;;;;;;;10.40;5.30;;;;;;;23.11;36.80;102548.42;105809;1277;24265;-56
2023/10/03 10:45:16;;;;;;;10.20;5.60;;;;;;;23.14;36.78;102547.54;105498;1271;25550;-56
2023/10/03 10:47:49;;;;;;;10.80;6.00;;;;;;;23.18;36.35;102543.14;105567;1267;22543;-56
2023/10/03 10:50:21;;;;;;;9.80;6.10;;;;;;;23.21;36.06;102539.98;105973;1265;22993;-55
2023/10/03 10:52:56;;;;;;;9.80;6.20;;;;;;;23.25;36.11;102535.70;106007;1267;25335;-56
2023/10/03 10:55:24;;;;;;;9.00;5.20;;;;;;;23.29;36.08;102534.98;105887;1283;25347;-56
2023/10/03 10:58:08;;;;;;;8.60;5.80;;;;;;;23.34;35.97;102526.80;106094;1272;23908;-56
2023/10/03 11:00:36;;;;;;;9.20;5.60;;;;;;;23.41;35.42;102526.11;106476;1265;25518;-56
2023/10/03 11:03:03;;;;;;;12.10;6.00;;;;;;;23.47;35.51;102525.15;106536;1264;25488;-55
2023/10/03 11:05:41;;;;;;;12.70;5.70;;;;;;;23.51;35.91;102523.34;107114;1257;25395;-55
2023/10/03 11:08:09;;;;;;;8.80;5.20;;;;;;;23.56;35.71;102521.34;107148;1254;25287;-56
2023/10/03 11:10:49;;;;;;;10.10;5.90;;;;;;;23.60;35.69;102519.16;106830;1259;25325;-56
2023/10/03 11:13:17;;;;;;;10.10;6.10;;;;;;;23.63;36.13;102517.25;107096;1254;25407;-55
2023/10/03 11:15:51;;;;;;;10.30;5.80;;;;;;;23.66;36.73;102511.81;107135;1254;25315;-55
2023/10/03 11:18:27;;;;;;;9.90;5.90;;;;;;;23.69;37.40;102516.96;106908;1251;22540;-55
2023/10/03 11:20:55;;;;;;;9.60;5.80;;;;;;;23.75;37.10;102513.30;106867;1257;25337;-56
2023/10/03 11:23:23;;;;;;;9.90;6.00;;;;;;;23.78;37.42;102513.67;107125;1250;25130;-55
2023/10/03 11:25:54;;;;;;;10.00;5.10;;;;;;;23.82;37.83;102515.60;107075;1254;24180;-55
2023/10/03 11:28:21;;;;;;;;;;;;;;;23.84;37.99;102512.31;106913;1269;22522;-55
2023/10/03 11:31:02;;;;;;;9.90;5.60;;;;;;;23.85;37.72;102514.73;106941;1263;25343;-55
2023/10/03 11:33:45;;;;;;;7.60;5.40;;;;;;;23.87;37.13;102513.76;107233;1254;24202;-55
2023/10/03 11:36:13;;;;;;;12.00;6.80;;;;;;;23.91;37.51;102511.24;107125;1256;25223;-55
2023/10/03 11:38:50;;;;;;;9.00;5.90;;;;;;;23.95;37.59;102513.52;107090;1250;24541;-55
2023/10/03 11:41:30;;;;;;;12.00;6.20;;;;;;;24.00;37.49;102512.77;107085;1254;25321;-55
2023/10/03 11:43:59;;;;;;;9.50;5.50;;;;;;;24.03;37.91;102512.09;106952;1259;25236;-55
2023/10/03 11:46:26;;;;;;;9.50;6.60;;;;;;;24.03;37.66;102509.62;106806;1269;25346;-54
2023/10/03 11:48:59;;;;;;;12.50;6.70;;;;;;;24.03;37.37;102507.30;107087;1266;25373;-55
2023/10/03 11:51:29;;;;;;;10.20;6.80;;;;;;;24.06;37.17;102503.95;107082;1264;25353;-55
2023/10/03 11:53:56;;;;;;;8.40;5.50;;;;;;;24.06;37.09;102498.46;107104;1251;25318;-55